Terminal Aerodrome Forecast
Issued by NWS Twin Cities, MN

Home | Current Version | Previous Version | Text Only | Print | Product List | Glossary Off
Versions: 1 2 3 4 5 6 7 8 9 10 11 12 13 14 15

093
FTUS43 KMPX 261129
TAFEAU
TAF
KEAU 261129Z 2612/2712 15007KT P6SM BKN070
     FM262000 20008KT P6SM SCT040 PROB30 2700/2703 -TSRA BKN035CB
     FM270300 VRB03KT P6SM SKC=

USA.gov is the U.S. government's official web portal to all federal, state and local government web resources and services.